createdAt,value
2022-07-28T00:12:58.547Z,14280.6123
2022-07-28T00:28:00.765Z,14655.81836
2022-07-28T00:43:03.044Z,14238.32031
2022-07-28T00:58:05.326Z,13060.64941
2022-07-28T01:13:07.774Z,10343.11426
2022-07-28T01:28:11.797Z,9243.52148
2022-07-28T01:43:14.081Z,7951.98779
2022-07-28T01:58:16.373Z,2681.74902
2022-07-28T02:13:18.669Z,920.66516
2022-07-28T02:28:20.966Z,849.09399
2022-07-28T02:43:23.238Z,737.39966
2022-07-28T02:58:25.587Z,559.55621
2022-07-28T03:13:27.886Z,344.84277
2022-07-28T03:28:30.162Z,132.29817
2022-07-28T03:43:32.489Z,43.37645
2022-07-28T03:58:35.020Z,7.59088
2022-07-28T04:13:37.477Z,1.08441
2022-07-28T04:28:39.817Z,0
2022-07-28T04:43:42.114Z,0
2022-07-28T04:58:44.610Z,0
2022-07-28T05:13:47.284Z,0
2022-07-28T05:28:49.576Z,0
2022-07-28T05:43:51.873Z,0
2022-07-28T05:58:55.888Z,0
2022-07-28T06:13:58.129Z,0
2022-07-28T06:29:00.405Z,0
2022-07-28T06:44:02.722Z,0
2022-07-28T06:59:05.055Z,0
2022-07-28T07:14:07.344Z,0
2022-07-28T07:29:09.601Z,0
2022-07-28T07:44:12.511Z,0
2022-07-28T07:59:14.991Z,0
2022-07-28T08:14:18.166Z,0
2022-07-28T08:29:20.802Z,0
2022-07-28T08:44:23.118Z,0
2022-07-28T08:59:25.463Z,0
2022-07-28T09:14:27.765Z,0
2022-07-28T09:29:30.036Z,0
2022-07-28T09:44:32.500Z,0
2022-07-28T09:59:34.837Z,0
2022-07-28T10:14:37.165Z,0
2022-07-28T10:29:39.450Z,0
2022-07-28T10:44:46.544Z,0
2022-07-28T10:59:48.876Z,0
2022-07-28T11:14:51.189Z,0
2022-07-28T11:29:53.830Z,0
2022-07-28T11:44:56.324Z,1.08441
2022-07-28T11:59:58.547Z,9.7597
2022-07-28T12:15:06.359Z,48.79851
2022-07-28T12:30:09.517Z,135.55141
2022-07-28T12:45:11.847Z,242.90813
2022-07-28T13:00:14.139Z,358.94012
2022-07-28T13:15:16.520Z,837.16547
2022-07-28T13:30:18.834Z,1530.10425
2022-07-28T13:45:22.173Z,1963.86877
2022-07-28T14:00:26.235Z,2788.02124
2022-07-28T14:15:29.118Z,2488.72388
2022-07-28T14:30:31.418Z,2984.2998
2022-07-28T14:45:33.691Z,4660.7998
2022-07-28T15:01:03.021Z,3508.07056
2022-07-28T15:16:05.400Z,3149.13037
2022-07-28T15:31:08.687Z,4262.8208
2022-07-28T15:46:11.514Z,7013.97217
2022-07-28T16:01:13.928Z,7871.74121
2022-07-28T16:16:16.318Z,8118.9873
2022-07-28T16:31:19.266Z,7972.5918
2022-07-28T16:46:21.755Z,7243.86719
2022-07-28T17:01:24.241Z,5640.02295
2022-07-28T17:16:26.627Z,7699.31982
2022-07-28T17:31:29.088Z,7048.67334
2022-07-28T17:46:36.158Z,7110.48486
2022-07-28T18:01:42.399Z,6234.28027
2022-07-28T18:16:47.789Z,7242.78271
2022-07-28T18:31:50.210Z,5394.9458
2022-07-28T18:46:52.673Z,7092.0498
2022-07-28T19:01:55.050Z,7698.23535
2022-07-28T19:16:57.639Z,5114.0835
2022-07-28T19:32:00.086Z,4081.72388
2022-07-28T19:47:02.370Z,7651.60596
2022-07-28T20:02:04.865Z,7404.35986
2022-07-28T20:17:07.378Z,2661.14526
2022-07-28T20:32:09.831Z,6524.90234
2022-07-28T20:47:12.157Z,6788.41455
2022-07-28T21:02:14.853Z,6663.70703
2022-07-28T21:17:17.235Z,7203.74414
2022-07-28T21:32:19.530Z,8047.41602
2022-07-28T21:47:21.901Z,7186.39355
2022-07-28T22:02:24.283Z,9665.35742
2022-07-28T22:17:28.078Z,8246.94727
2022-07-28T22:32:32.093Z,7577.86572
2022-07-28T22:47:34.467Z,8824.93848
2022-07-28T23:02:36.905Z,9164.35938
2022-07-28T23:17:39.246Z,10563.25
2022-07-28T23:32:41.516Z,11205.22168
2022-07-28T23:47:43.764Z,12591.09961
